Time;durP1;ratioP1;P1;durP2;ratioP2;P2;SDS_P1;SDS_P2;PMS_P1;PMS_P2;Temp;Humidity;BMP_temperature;BMP_pressure;BME280_temperature;BME280_humidity;BME280_pressure;Samples;Min_cycle;Max_cycle;Signal;HPM_P1;HPM_P2
2021/05/21 00:12:42;;;;;;;4.25;2.93;;;;;;;9.45;100.00;100210.02;712597;1205;114450;-72
2021/05/21 00:28:03;;;;;;;6.90;3.30;;;;;;;9.24;100.00;100198.75;712553;1202;115172;-73
2021/05/21 00:43:23;;;;;;;5.37;2.80;;;;;;;8.90;100.00;100199.75;712641;1202;114559;-73
2021/05/21 00:58:44;;;;;;;9.23;3.78;;;;;;;8.35;100.00;100186.72;712467;1206;114876;-73
2021/05/21 01:14:09;;;;;;;4.03;3.17;;;;;;;8.15;100.00;100162.19;712391;1202;114914;-73
2021/05/21 01:29:30;;;;;;;5.80;3.10;;;;;;;8.28;100.00;100159.44;712140;1206;115044;-73
2021/05/21 01:44:54;;;;;;;6.28;3.53;;;;;;;8.11;100.00;100158.17;712138;1204;114951;-74
2021/05/21 02:00:15;;;;;;;8.63;4.67;;;;;;;8.15;100.00;100147.33;712127;1206;115197;-74
2021/05/21 02:15:35;;;;;;;10.97;5.83;;;;;;;8.29;100.00;100137.58;712196;1203;115456;-74
2021/05/21 02:30:56;;;;;;;17.90;7.90;;;;;;;8.64;100.00;100129.50;712133;1202;113564;-73
2021/05/21 02:46:16;;;;;;;11.80;6.93;;;;;;;8.80;100.00;100115.98;712047;1202;116214;-73
2021/05/21 03:01:36;;;;;;;13.20;8.23;;;;;;;8.89;100.00;100106.52;712227;1205;114160;-73
2021/05/21 03:16:59;;;;;;;7.10;5.10;;;;;;;8.75;100.00;100093.77;712185;1192;114311;-74
2021/05/21 03:32:19;;;;;;;8.90;5.55;;;;;;;8.76;100.00;100093.66;712202;1202;115341;-74
2021/05/21 03:47:40;;;;;;;8.53;5.30;;;;;;;8.98;100.00;100082.20;712176;1180;113978;-73
2021/05/21 04:03:00;;;;;;;11.27;6.00;;;;;;;9.25;100.00;100074.73;712179;1202;114925;-73
2021/05/21 04:18:21;;;;;;;8.30;5.75;;;;;;;9.47;100.00;100079.78;712629;1202;115502;-75
2021/05/21 04:33:42;;;;;;;24.05;11.43;;;;;;;9.71;100.00;100075.98;712210;1203;115054;-72
2021/05/21 04:49:02;;;;;;;13.45;7.15;;;;;;;9.66;100.00;100075.58;712278;1202;114503;-73
2021/05/21 05:04:23;;;;;;;10.73;6.63;;;;;;;10.06;100.00;100061.56;715024;1168;114059;-74
2021/05/21 05:19:43;;;;;;;12.00;6.95;;;;;;;10.51;100.00;100044.45;712091;1202;115530;-73
2021/05/21 05:35:05;;;;;;;9.23;6.03;;;;;;;11.45;100.00;100047.99;712188;1206;116174;-76
2021/05/21 05:50:26;;;;;;;12.15;5.55;;;;;;;11.99;100.00;100035.75;712267;1206;114860;-74
2021/05/21 06:05:46;;;;;;;7.95;5.90;;;;;;;12.07;100.00;100032.38;712348;1200;114423;-75
2021/05/21 06:21:06;;;;;;;8.37;5.70;;;;;;;12.31;100.00;100020.41;712364;1206;114118;-76
2021/05/21 06:36:27;;;;;;;6.73;5.17;;;;;;;13.01;100.00;100006.34;712378;1202;115581;-74
2021/05/21 06:51:47;;;;;;;9.55;5.20;;;;;;;13.83;100.00;99991.78;712341;1203;114170;-73
2021/05/21 07:07:08;;;;;;;5.60;4.00;;;;;;;14.46;100.00;99970.00;712480;1204;115236;-72
2021/05/21 07:22:28;;;;;;;7.00;4.35;;;;;;;15.05;95.40;99955.63;712490;1202;115208;-73
2021/05/21 07:37:51;;;;;;;7.50;4.00;;;;;;;15.81;88.13;99933.88;712668;1203;113823;-73
2021/05/21 07:53:12;;;;;;;6.15;4.10;;;;;;;16.71;83.61;99918.89;714548;1202;114704;-71
2021/05/21 08:08:33;;;;;;;6.23;4.43;;;;;;;17.07;79.30;99918.12;712530;1203;114546;-73
2021/05/21 08:23:55;;;;;;;6.85;4.40;;;;;;;17.55;71.63;99909.66;712471;1202;115098;-73
2021/05/21 08:39:17;;;;;;;4.87;3.50;;;;;;;17.74;69.56;99907.36;712610;1191;114068;-73
2021/05/21 08:54:45;;;;;;;5.07;2.60;;;;;;;17.80;65.36;99875.58;712479;1202;115264;-72
2021/05/21 09:10:13;;;;;;;7.63;3.80;;;;;;;18.77;63.31;99865.09;712611;1203;115114;-73
2021/05/21 09:25:49;;;;;;;4.75;3.68;;;;;;;18.58;63.05;99853.39;712815;1202;115559;-72
2021/05/21 09:41:09;;;;;;;7.63;3.73;;;;;;;18.86;61.90;99835.68;712627;1202;115414;-72
2021/05/21 09:56:30;;;;;;;7.70;3.20;;;;;;;19.00;58.58;99817.97;712699;1202;115531;-73
2021/05/21 10:11:50;;;;;;;6.43;3.97;;;;;;;19.40;55.78;99808.20;712778;1202;115199;-72
2021/05/21 10:27:21;;;;;;;4.80;3.25;;;;;;;19.14;56.14;99778.95;712636;1203;113791;-74
2021/05/21 10:42:41;;;;;;;11.83;3.70;;;;;;;19.82;55.22;99764.58;712723;1202;114270;-74
2021/05/21 10:58:01;;;;;;;6.70;2.70;;;;;;;19.29;53.91;99734.34;712805;1206;115570;-73
2021/05/21 11:13:26;;;;;;;3.28;2.30;;;;;;;20.82;53.01;99715.37;712988;1203;114272;-73
2021/05/21 11:28:50;;;;;;;8.98;3.08;;;;;;;19.79;52.05;99702.75;712695;1202;114988;-72
2021/05/21 11:44:12;;;;;;;7.00;2.25;;;;;;;20.07;52.33;99688.34;712815;1202;114090;-73
2021/05/21 11:59:32;;;;;;;6.35;2.88;;;;;;;20.41;50.74;99680.95;713046;1179;113700;-72
2021/05/21 12:15:11;;;;;;;5.13;2.55;;;;;;;19.53;51.46;99655.77;712492;1203;114051;-74
2021/05/21 12:30:32;;;;;;;8.40;2.97;;;;;;;19.26;53.42;99628.41;712598;1205;115466;-74
2021/05/21 12:46:04;;;;;;;4.27;3.00;;;;;;;20.97;52.90;99621.73;712757;1202;113904;-72
2021/05/21 13:01:26;;;;;;;7.05;2.78;;;;;;;20.73;51.32;99603.72;712809;1203;115144;-72
2021/05/21 13:16:52;;;;;;;3.63;2.07;;;;;;;21.26;51.92;99562.36;712866;1202;114801;-72
2021/05/21 13:32:13;;;;;;;4.58;2.15;;;;;;;21.32;49.51;99549.97;714504;1203;115394;-71
2021/05/21 13:47:34;;;;;;;5.23;1.97;;;;;;;21.05;49.86;99494.30;712974;1203;114143;-70
2021/05/21 14:02:55;;;;;;;2.63;1.93;;;;;;;20.73;50.71;99491.80;725693;1206;115044;-72
2021/05/21 14:18:15;;;;;;;5.83;2.13;;;;;;;19.45;51.52;99485.76;712907;1206;113994;-73
2021/05/21 14:33:43;;;;;;;1.70;1.03;;;;;;;19.44;52.42;99457.56;712786;1178;114239;-73
2021/05/21 14:49:06;;;;;;;3.85;2.00;;;;;;;19.93;53.66;99421.41;712767;1202;113783;-73
2021/05/21 15:04:27;;;;;;;2.83;1.33;;;;;;;19.99;52.42;99409.08;713126;1203;115093;-72
2021/05/21 15:35:37;;;;;;;3.83;2.07;;;;;;;19.52;54.79;99397.95;712752;1179;114005;-74
2021/05/21 15:51:08;;;;;;;5.70;2.90;;;;;;;19.32;55.13;99368.84;712930;1180;114556;-73
2021/05/21 16:06:29;;;;;;;5.60;2.90;;;;;;;19.66;55.97;99340.96;714358;1202;115221;-73
2021/05/21 16:21:49;;;;;;;4.63;2.40;;;;;;;20.09;55.11;99318.09;713003;1202;113265;-71
2021/05/21 16:37:09;;;;;;;3.63;1.83;;;;;;;19.97;55.17;99294.05;712669;1202;115198;-77
2021/05/21 16:52:37;;;;;;;6.13;2.50;;;;;;;19.71;56.40;99269.30;713085;1203;114788;-73
2021/05/21 17:07:58;;;;;;;4.83;2.40;;;;;;;19.40;58.08;99267.53;712694;1202;115446;-72
2021/05/21 17:54:42;;;;;;;14.50;9.20;;;;;;;18.28;59.38;99250.25;713043;1204;114742;-74
2021/05/21 18:10:27;;;;;;;3.25;2.48;;;;;;;17.95;60.62;99243.22;713274;1181;113819;-74
2021/05/21 19:12:33;;;;;;;5.50;2.47;;;;;;;16.91;62.62;99264.06;713871;1203;113731;-76
2021/05/21 19:27:55;;;;;;;5.55;2.15;;;;;;;16.72;62.96;99260.31;713502;1202;113829;-73
2021/05/21 19:43:34;;;;;;;3.43;1.85;;;;;;;16.35;64.29;99273.86;713238;1202;113896;-73
2021/05/21 20:14:24;;;;;;;11.53;5.13;;;;;;;15.68;70.67;99328.15;713718;1178;113837;-75
2021/05/21 20:29:50;;;;;;;13.80;5.33;;;;;;;15.24;74.60;99340.59;713437;1180;114181;-74
2021/05/21 21:01:25;;;;;;;17.85;8.00;;;;;;;14.34;81.26;99317.02;712811;1206;114025;-74
2021/05/21 22:18:09;;;;;;;8.98;4.48;;;;;;;12.23;94.88;99378.73;712757;1206;114901;-72
2021/05/21 22:33:30;;;;;;;26.75;12.30;;;;;;;12.05;98.85;99382.38;713094;1178;114282;-74
2021/05/21 22:48:50;;;;;;;10.63;5.47;;;;;;;11.64;99.80;99375.31;712702;1202;114651;-71
2021/05/21 23:04:11;;;;;;;6.55;4.00;;;;;;;11.25;100.00;99375.13;712479;1202;114099;-73
2021/05/21 23:19:32;;;;;;;7.13;3.50;;;;;;;11.08;100.00;99361.95;712737;1202;113870;-73
2021/05/21 23:34:52;;;;;;;5.33;3.47;;;;;;;11.07;100.00;99383.95;712584;1203;115542;-73
2021/05/21 23:50:13;;;;;;;7.85;3.85;;;;;;;10.89;100.00;99384.06;712375;1202;115890;-72
